Time;durP1;ratioP1;P1;durP2;ratioP2;P2;SDS_P1;SDS_P2;PMS_P1;PMS_P2;Temp;Humidity;BMP_temperature;BMP_pressure;BME280_temperature;BME280_humidity;BME280_pressure;Samples;Min_cycle;Max_cycle;Signal;HPM_P1;HPM_P2
2021/08/04 13:43:46;;;;;;;3.33;1.78;;;;;;;21.99;61.20;96453.23;127370;1092;26148;-83
2021/08/04 13:46:17;;;;;;;2.25;1.50;;;;;;;22.05;61.46;96443.73;127380;1093;63376;-85
2021/08/04 13:48:49;;;;;;;2.28;1.48;;;;;;;22.11;60.01;96449.64;127416;1094;24694;-85
2021/08/04 13:51:20;;;;;;;1.73;1.50;;;;;;;22.10;60.21;96453.45;127289;1093;73811;-87
2021/08/04 13:53:52;;;;;;;3.33;1.73;;;;;;;21.94;59.36;96451.58;127587;1093;28364;-84
2021/08/04 13:56:24;;;;;;;2.20;1.88;;;;;;;21.88;60.17;96452.23;127500;1093;22789;-89
2021/08/04 13:58:56;;;;;;;2.85;1.80;;;;;;;21.85;59.59;96448.33;127392;1093;28745;-85
2021/08/04 14:01:27;;;;;;;2.63;1.80;;;;;;;21.82;60.81;96451.74;127412;1093;25666;-83
2021/08/04 14:03:58;;;;;;;2.83;1.73;;;;;;;21.82;60.07;96445.56;127473;1093;24558;-84
2021/08/04 14:06:30;;;;;;;2.13;1.73;;;;;;;21.75;59.96;96446.19;127431;1093;22790;-83
2021/08/04 14:09:01;;;;;;;1.78;1.65;;;;;;;21.82;60.77;96453.66;127435;1093;29076;-85
2021/08/04 14:11:33;;;;;;;2.73;1.75;;;;;;;21.86;61.23;96447.19;127440;1093;24313;-85
2021/08/04 14:14:04;;;;;;;2.38;1.70;;;;;;;21.84;61.20;96449.47;127515;1093;28003;-86
2021/08/04 14:16:36;;;;;;;4.47;2.00;;;;;;;21.78;60.66;96445.47;127485;1093;22883;-89
2021/08/04 14:19:07;;;;;;;2.48;1.80;;;;;;;21.70;60.55;96443.78;127420;1093;28284;-85
2021/08/04 14:21:38;;;;;;;1.65;1.55;;;;;;;21.67;61.07;96439.06;127384;1094;46150;-88
2021/08/04 14:24:10;;;;;;;3.63;1.80;;;;;;;21.66;61.12;96442.90;127443;1093;22787;-84
2021/08/04 14:26:42;;;;;;;3.00;1.88;;;;;;;21.73;61.87;96436.89;127414;1093;32806;-87
2021/08/04 14:29:13;;;;;;;4.55;1.50;;;;;;;21.84;62.53;96438.67;127423;1093;26193;-88
2021/08/04 14:31:47;;;;;;;2.40;1.75;;;;;;;21.93;62.15;96447.31;127552;1094;27556;-83
2021/08/04 14:34:19;;;;;;;2.08;1.70;;;;;;;22.00;61.85;96440.52;127436;1093;43329;-84
2021/08/04 14:36:50;;;;;;;2.08;1.75;;;;;;;22.09;62.82;96432.98;127419;1093;35061;-85
2021/08/04 14:39:21;;;;;;;1.95;1.50;;;;;;;22.09;62.16;96441.09;127416;1093;40388;-86
2021/08/04 14:41:53;;;;;;;2.50;1.50;;;;;;;22.07;61.90;96437.97;127459;1093;36308;-89
2021/08/04 14:44:25;;;;;;;2.10;1.88;;;;;;;22.10;62.00;96450.75;127491;1092;24501;-86
2021/08/04 14:46:56;;;;;;;3.40;1.83;;;;;;;22.11;61.67;96450.42;127384;1093;24842;-84
2021/08/04 14:49:28;;;;;;;2.58;1.53;;;;;;;22.11;62.13;96457.73;127423;1093;33257;-83
2021/08/04 14:51:59;;;;;;;2.75;1.88;;;;;;;22.12;61.91;96453.90;127461;1093;26274;-84
2021/08/04 14:54:30;;;;;;;2.95;1.70;;;;;;;22.12;62.17;96454.68;127450;1093;24380;-84
2021/08/04 14:57:01;;;;;;;2.28;1.48;;;;;;;22.10;61.44;96456.95;127453;1093;32133;-84
2021/08/04 14:59:35;;;;;;;3.55;1.55;;;;;;;22.02;60.94;96465.23;127422;1093;24747;-87
2021/08/04 15:02:08;;;;;;;2.08;1.55;;;;;;;21.93;61.79;96470.83;127445;1093;22783;-87
2021/08/04 15:04:39;;;;;;;2.60;1.80;;;;;;;21.89;61.33;96465.37;127530;1093;22792;-85
2021/08/04 15:07:11;;;;;;;2.97;1.93;;;;;;;21.88;61.22;96463.80;127429;1093;23484;-84
2021/08/04 15:09:43;;;;;;;2.55;1.50;;;;;;;21.91;60.99;96462.31;127432;1093;22793;-86
2021/08/04 15:12:14;;;;;;;2.90;1.70;;;;;;;21.94;61.62;96470.47;127225;1093;89604;-87
2021/08/04 15:14:45;;;;;;;2.57;1.57;;;;;;;21.96;61.69;96472.03;127230;1093;68799;-85
2021/08/04 15:17:17;;;;;;;2.20;1.60;;;;;;;21.87;60.42;96470.34;127332;1093;97872;-84
2021/08/04 15:19:48;;;;;;;1.73;1.48;;;;;;;21.83;60.83;96464.09;127116;1093;78444;-82
2021/08/04 15:22:19;;;;;;;3.65;1.95;;;;;;;21.79;60.84;96457.05;127331;1093;49085;-83
2021/08/04 15:24:51;;;;;;;1.80;1.67;;;;;;;21.72;60.67;96463.09;127589;1093;34970;-82
2021/08/04 15:27:22;;;;;;;2.68;1.93;;;;;;;21.66;60.85;96464.48;127506;1093;38810;-82
2021/08/04 15:29:53;;;;;;;1.85;1.63;;;;;;;21.53;60.77;96460.34;127526;1093;96239;-85
2021/08/04 15:32:25;;;;;;;2.88;1.80;;;;;;;21.47;61.29;96467.94;127527;1093;82630;-84
2021/08/04 15:34:56;;;;;;;2.03;1.73;;;;;;;21.52;61.49;96464.17;127359;1093;100592;-83
2021/08/04 15:37:27;;;;;;;3.43;1.90;;;;;;;21.55;61.29;96468.89;127449;1093;32961;-82
2021/08/04 15:40:29;;;;;;;3.20;1.80;;;;;;;21.53;60.74;96461.13;127257;1092;82945;-83
2021/08/04 15:43:01;;;;;;;3.53;2.18;;;;;;;21.34;60.91;96461.88;127576;1093;38517;-84
2021/08/04 15:45:33;;;;;;;2.90;2.10;;;;;;;21.19;60.58;96464.56;127304;1093;68220;-85
2021/08/04 15:48:05;;;;;;;2.55;1.88;;;;;;;21.12;60.80;96459.03;127647;1093;46194;-85
2021/08/04 15:50:36;;;;;;;4.08;1.60;;;;;;;21.01;60.74;96456.86;127581;1093;26839;-85
2021/08/04 15:53:08;;;;;;;3.47;1.77;;;;;;;20.86;60.79;96464.95;127548;1093;30860;-86
2021/08/04 15:55:40;;;;;;;2.75;1.80;;;;;;;20.81;61.39;96463.27;127681;1093;31293;-86
2021/08/04 15:58:12;;;;;;;3.28;2.00;;;;;;;20.79;61.32;96468.23;127674;1093;23079;-84
2021/08/04 16:00:44;;;;;;;5.88;2.23;;;;;;;20.72;61.28;96471.55;127563;1093;58736;-85
2021/08/04 16:03:16;;;;;;;2.73;1.90;;;;;;;20.62;61.55;96466.66;127725;1093;45296;-79
2021/08/04 16:05:48;;;;;;;2.95;2.05;;;;;;;20.60;61.73;96460.84;127583;1093;68677;-85
2021/08/04 16:08:19;;;;;;;2.75;1.83;;;;;;;20.59;61.99;96461.98;127602;1093;46537;-84
2021/08/04 16:10:50;;;;;;;3.73;2.38;;;;;;;20.55;61.89;96458.41;127517;1093;139917;-85
2021/08/04 16:13:22;;;;;;;3.75;2.60;;;;;;;20.46;62.03;96463.17;127554;1093;87402;-86
2021/08/04 16:15:53;;;;;;;3.83;2.30;;;;;;;20.39;62.27;96462.94;127333;1092;80737;-85
2021/08/04 16:18:25;;;;;;;4.83;2.40;;;;;;;20.31;62.02;96461.98;127381;1093;54067;-84
2021/08/04 16:20:56;;;;;;;3.13;2.18;;;;;;;20.28;62.45;96462.68;127768;1093;22819;-84
2021/08/04 16:23:28;;;;;;;4.65;1.98;;;;;;;20.27;62.96;96452.23;127751;1093;25404;-83
2021/08/04 16:26:01;;;;;;;3.40;2.60;;;;;;;20.28;62.71;96445.75;127749;1093;26382;-83
2021/08/04 16:28:32;;;;;;;2.80;2.10;;;;;;;20.27;62.72;96444.16;127834;1093;23061;-83
2021/08/04 16:31:04;;;;;;;3.10;2.15;;;;;;;20.27;62.82;96454.92;127723;1093;24428;-85
2021/08/04 16:33:36;;;;;;;2.43;2.10;;;;;;;20.27;62.76;96465.69;127743;1093;22940;-85
2021/08/04 16:36:08;;;;;;;3.55;2.30;;;;;;;20.24;63.21;96466.38;127660;1093;24149;-86
2021/08/04 16:38:39;;;;;;;5.15;2.35;;;;;;;20.22;63.79;96453.27;127636;1093;23385;-86
2021/08/04 16:41:12;;;;;;;2.28;1.70;;;;;;;20.15;63.56;96461.95;127594;1092;22790;-85
2021/08/04 16:43:43;;;;;;;4.08;2.43;;;;;;;20.14;63.63;96464.98;127730;1092;22891;-85
2021/08/04 16:48:58;;;;;;;4.58;2.65;;;;;;;20.15;63.54;96461.17;126195;1096;27749;-85
2021/08/04 16:51:29;;;;;;;3.78;2.40;;;;;;;20.16;64.03;96460.04;127423;1096;27062;-86
2021/08/04 16:54:01;;;;;;;3.60;2.30;;;;;;;20.14;64.21;96464.98;127604;1096;27646;-85
2021/08/04 16:56:33;;;;;;;4.13;2.43;;;;;;;20.08;64.17;96456.36;127687;1096;32637;-85
2021/08/04 16:59:07;;;;;;;4.35;2.40;;;;;;;20.09;64.32;96449.06;127805;1097;25910;-85
2021/08/04 17:01:39;;;;;;;3.15;2.28;;;;;;;20.09;64.42;96455.23;127780;1097;29063;-85
2021/08/04 17:04:11;;;;;;;5.83;2.30;;;;;;;20.11;64.89;96466.44;127874;1095;30657;-85
2021/08/04 17:06:43;;;;;;;4.13;2.60;;;;;;;20.09;64.74;96463.30;127704;1096;25516;-85
2021/08/04 17:09:15;;;;;;;4.53;2.60;;;;;;;20.06;64.79;96469.38;127957;1096;27377;-86
2021/08/04 17:11:47;;;;;;;3.77;2.30;;;;;;;20.06;65.14;96469.38;127744;1096;30421;-84
2021/08/04 17:14:18;;;;;;;6.35;2.75;;;;;;;20.02;65.54;96471.20;127853;1095;26983;-84
2021/08/04 17:16:50;;;;;;;3.30;2.68;;;;;;;19.98;66.07;96469.52;127688;1096;26559;-85
2021/08/04 17:19:23;;;;;;;5.73;3.20;;;;;;;19.95;66.89;96480.97;127664;1097;26652;-86
2021/08/04 17:21:55;;;;;;;4.30;3.00;;;;;;;19.93;66.52;96481.31;127539;1097;29345;-86
2021/08/04 17:24:27;;;;;;;4.55;3.03;;;;;;;19.92;67.06;96477.05;127422;1096;29725;-86
2021/08/04 17:27:02;;;;;;;4.60;2.80;;;;;;;19.85;67.30;96482.25;127572;1096;28392;-86
2021/08/04 17:29:36;;;;;;;3.88;2.80;;;;;;;19.76;67.63;96481.59;127482;1096;39571;-87
2021/08/04 17:32:09;;;;;;;5.73;2.90;;;;;;;19.68;68.15;96480.59;127671;1097;27394;-86
2021/08/04 17:34:40;;;;;;;5.20;3.28;;;;;;;19.63;68.32;96478.14;127382;1096;32121;-85
2021/08/04 17:37:12;;;;;;;4.50;3.10;;;;;;;19.59;68.85;96479.17;127626;1097;26518;-84
2021/08/04 17:39:43;;;;;;;4.95;3.08;;;;;;;19.56;68.92;96462.59;127474;1096;25154;-85
2021/08/04 17:42:15;;;;;;;2.97;2.70;;;;;;;19.55;68.85;96462.91;127611;1097;24368;-86
2021/08/04 17:44:46;;;;;;;4.40;2.88;;;;;;;19.58;69.01;96461.47;127414;1096;28675;-85
2021/08/04 17:47:18;;;;;;;5.40;3.00;;;;;;;19.53;69.71;96463.22;127674;1097;26912;-84
2021/08/04 17:49:50;;;;;;;4.40;2.88;;;;;;;19.44;69.76;96473.33;127610;1096;27933;-86
2021/08/04 17:52:21;;;;;;;5.68;3.45;;;;;;;19.32;70.20;96470.66;127684;1097;24852;-84
2021/08/04 17:54:53;;;;;;;7.33;3.38;;;;;;;19.22;70.82;96471.10;127568;1095;32186;-85
2021/08/04 17:57:25;;;;;;;5.00;2.83;;;;;;;19.14;71.22;96475.48;127616;1097;40033;-86
2021/08/04 17:59:56;;;;;;;4.75;3.10;;;;;;;19.04;72.12;96467.08;127577;1094;26472;-85
2021/08/04 18:02:28;;;;;;;4.58;3.05;;;;;;;18.92;71.82;96474.02;127696;1095;28611;-85
2021/08/04 18:04:59;;;;;;;4.85;3.08;;;;;;;18.89;71.29;96473.91;127621;1096;26166;-84
2021/08/04 18:07:31;;;;;;;5.00;3.63;;;;;;;18.86;71.82;96469.18;127654;1097;26868;-85
2021/08/04 18:10:03;;;;;;;4.40;3.00;;;;;;;18.80;71.86;96475.91;127767;1097;28932;-85
2021/08/04 18:12:35;;;;;;;6.20;3.63;;;;;;;18.78;71.86;96468.18;127475;1095;24643;-86
2021/08/04 18:15:08;;;;;;;4.88;3.28;;;;;;;18.76;71.65;96473.11;127776;1097;23295;-84
2021/08/04 18:17:40;;;;;;;5.70;3.65;;;;;;;18.72;72.03;96472.22;127514;1096;26437;-84
2021/08/04 18:20:15;;;;;;;4.43;3.23;;;;;;;18.70;72.15;96479.80;127562;1097;26485;-83
2021/08/04 18:22:46;;;;;;;6.23;3.00;;;;;;;18.68;72.27;96476.66;127449;1096;25808;-83
2021/08/04 18:25:18;;;;;;;6.05;3.15;;;;;;;18.62;72.50;96475.30;127659;1095;25709;-84
2021/08/04 18:27:49;;;;;;;5.53;3.40;;;;;;;18.55;73.25;96477.72;127590;1097;26504;-84
2021/08/04 18:30:21;;;;;;;3.80;2.90;;;;;;;18.49;73.38;96484.44;127538;1096;28766;-84
2021/08/04 18:32:53;;;;;;;4.53;3.20;;;;;;;18.50;73.26;96488.69;127637;1095;52426;-83
2021/08/04 18:35:25;;;;;;;3.50;2.98;;;;;;;18.54;73.09;96484.21;127646;1095;24404;-82
2021/08/04 18:37:56;;;;;;;4.35;3.05;;;;;;;18.56;73.21;96479.29;128095;1095;28067;-83
2021/08/04 18:40:28;;;;;;;5.55;3.63;;;;;;;18.51;73.72;96480.30;127720;1096;29706;-83
2021/08/04 18:43:00;;;;;;;5.10;3.40;;;;;;;18.46;73.91;96487.78;127738;1095;25515;-84
2021/08/04 18:45:32;;;;;;;4.05;3.43;;;;;;;18.43;74.11;96493.80;127561;1095;28435;-84
2021/08/04 18:48:03;;;;;;;5.33;3.50;;;;;;;18.46;74.49;96487.78;127722;1095;27874;-83
2021/08/04 18:50:35;;;;;;;7.13;3.60;;;;;;;18.50;74.55;96491.37;127586;1096;26960;-83
2021/08/04 18:53:07;;;;;;;6.45;3.73;;;;;;;18.46;74.70;96485.89;127670;1096;22963;-82
2021/08/04 18:55:39;;;;;;;4.98;3.48;;;;;;;18.43;74.93;96491.89;127538;1096;33682;-84
2021/08/04 18:58:11;;;;;;;4.53;3.20;;;;;;;18.48;75.12;96497.07;127472;1096;22807;-83
2021/08/04 19:00:44;;;;;;;8.23;3.35;;;;;;;18.51;75.14;96500.98;127617;1097;27224;-83
2021/08/04 19:03:15;;;;;;;5.20;2.90;;;;;;;18.46;74.97;96493.94;127490;1096;27007;-84
2021/08/04 19:05:46;;;;;;;5.90;3.15;;;;;;;18.47;74.97;96497.41;127627;1097;58262;-83
2021/08/04 19:08:18;;;;;;;3.90;3.08;;;;;;;18.47;74.89;96494.72;127517;1096;23742;-84
2021/08/04 19:10:50;;;;;;;5.78;3.33;;;;;;;18.49;75.02;96481.75;127398;1096;23581;-83
2021/08/04 19:13:21;;;;;;;4.30;3.00;;;;;;;18.53;74.87;96499.53;127550;1095;22802;-84
2021/08/04 19:15:53;;;;;;;4.65;3.40;;;;;;;18.47;75.20;96500.88;127576;1096;22990;-83
2021/08/04 19:18:25;;;;;;;6.65;3.43;;;;;;;18.42;75.61;96497.59;127384;1096;73440;-83
2021/08/04 19:20:56;;;;;;;4.20;3.15;;;;;;;18.47;75.96;96498.19;127554;1097;22809;-84
2021/08/04 19:23:28;;;;;;;4.93;3.10;;;;;;;18.52;75.88;96497.19;127540;1096;25863;-83
2021/08/04 19:25:59;;;;;;;4.07;2.83;;;;;;;18.55;76.14;96496.52;127537;1096;30715;-83
2021/08/04 19:28:31;;;;;;;4.75;2.90;;;;;;;18.48;76.12;96496.29;127455;1096;26531;-83
2021/08/04 19:31:02;;;;;;;5.63;2.87;;;;;;;18.36;76.11;96489.77;127430;1096;43955;-84
2021/08/04 19:33:34;;;;;;;4.38;3.00;;;;;;;18.25;76.16;96485.91;127480;1095;24402;-84
2021/08/04 19:36:06;;;;;;;5.60;2.98;;;;;;;18.20;76.05;96496.08;127473;1096;24031;-83
2021/08/04 19:38:37;;;;;;;6.13;3.20;;;;;;;18.20;76.08;96490.72;127455;1096;51535;-83
2021/08/04 19:41:09;;;;;;;4.65;3.05;;;;;;;18.24;76.38;96489.72;127432;1095;27338;-83
2021/08/04 19:43:41;;;;;;;4.05;2.68;;;;;;;18.29;76.36;96492.19;127427;1095;24292;-84
2021/08/04 19:46:16;;;;;;;5.33;4.00;;;;;;;18.25;76.69;96488.60;127399;1097;23480;-83
2021/08/04 19:48:47;;;;;;;7.27;4.50;;;;;;;18.16;77.07;96485.23;127415;1096;22887;-83
2021/08/04 19:51:19;;;;;;;6.78;4.13;;;;;;;18.13;77.69;96501.97;127452;1096;28482;-83
2021/08/04 19:53:51;;;;;;;6.43;4.18;;;;;;;18.04;77.38;96491.33;127408;1097;25090;-83
2021/08/04 19:56:22;;;;;;;7.68;4.30;;;;;;;18.02;77.49;96490.09;127371;1096;29258;-83
2021/08/04 19:58:54;;;;;;;5.55;3.93;;;;;;;18.05;77.60;96487.53;127460;1097;27487;-85
2021/08/04 20:01:25;;;;;;;5.53;3.85;;;;;;;18.12;77.86;96484.30;127433;1096;26297;-84
2021/08/04 20:03:57;;;;;;;6.50;3.93;;;;;;;18.10;77.80;96481.95;127447;1096;22809;-84
2021/08/04 20:06:28;;;;;;;6.13;3.87;;;;;;;18.03;77.90;96476.34;127427;1097;27282;-83
2021/08/04 20:09:00;;;;;;;5.40;4.18;;;;;;;18.03;78.28;96470.20;127447;1096;41339;-83
2021/08/04 20:11:31;;;;;;;5.38;3.83;;;;;;;18.04;78.28;96467.18;127432;1096;24916;-83
2021/08/04 20:14:04;;;;;;;5.23;3.60;;;;;;;18.11;78.58;96466.64;127482;1097;26964;-82
2021/08/04 20:16:36;;;;;;;5.38;3.88;;;;;;;18.11;78.38;96466.64;127512;1097;23780;-84
2021/08/04 20:19:08;;;;;;;5.48;3.40;;;;;;;18.01;78.61;96467.03;127408;1096;27627;-84
2021/08/04 20:21:40;;;;;;;6.30;3.75;;;;;;;18.01;78.72;96467.03;127402;1096;28265;-83
2021/08/04 20:24:11;;;;;;;5.78;3.53;;;;;;;17.93;78.79;96460.64;127428;1096;22896;-83
2021/08/04 20:26:43;;;;;;;6.23;3.53;;;;;;;17.87;78.83;96466.52;127453;1096;22913;-83
2021/08/04 20:29:15;;;;;;;4.35;3.33;;;;;;;17.85;78.99;96466.07;127492;1096;25595;-83
2021/08/04 20:31:46;;;;;;;5.48;3.28;;;;;;;17.93;79.09;96465.23;127402;1097;44073;-83
2021/08/04 20:34:18;;;;;;;5.20;3.85;;;;;;;17.97;78.92;96463.45;127442;1096;24140;-83
2021/08/04 20:36:50;;;;;;;6.68;3.80;;;;;;;17.98;78.64;96465.80;127443;1097;23516;-83
2021/08/04 20:39:22;;;;;;;6.45;4.13;;;;;;;18.01;78.67;96465.13;127471;1096;24593;-83
2021/08/04 20:41:54;;;;;;;5.25;3.68;;;;;;;17.99;78.58;96472.73;127436;1096;24096;-83
2021/08/04 20:44:28;;;;;;;6.53;3.70;;;;;;;17.91;78.79;96462.09;127450;1096;28248;-84
2021/08/04 20:47:00;;;;;;;6.98;3.70;;;;;;;17.83;79.01;96463.72;127405;1096;23294;-84
2021/08/04 20:49:32;;;;;;;7.60;3.63;;;;;;;17.84;79.13;96451.09;127458;1096;22942;-83
2021/08/04 20:52:03;;;;;;;3.80;3.30;;;;;;;17.90;79.42;96457.84;127517;1097;25092;-84
2021/08/04 20:54:35;;;;;;;5.98;3.65;;;;;;;17.94;79.57;96456.06;127432;1096;33781;-83
2021/08/04 20:57:09;;;;;;;5.40;3.70;;;;;;;17.94;79.90;96450.70;127556;1096;23050;-83
2021/08/04 20:59:49;;;;;;;5.35;3.75;;;;;;;17.91;80.06;96451.36;127383;1096;26289;-83
2021/08/04 21:02:21;;;;;;;5.25;3.15;;;;;;;17.84;80.21;96451.09;127419;1096;30218;-84
2021/08/04 21:04:53;;;;;;;4.30;2.88;;;;;;;17.82;80.39;96445.28;127439;1097;23008;-83
2021/08/04 21:07:29;;;;;;;6.28;3.20;;;;;;;17.87;80.55;96445.85;127424;1096;27253;-83
2021/08/04 21:10:01;;;;;;;4.27;3.23;;;;;;;17.93;80.61;96439.19;127421;1096;23580;-84
2021/08/04 21:12:34;;;;;;;5.88;3.60;;;;;;;17.99;80.71;96447.80;127428;1095;29859;-84
2021/08/04 21:15:07;;;;;;;4.85;3.50;;;;;;;17.96;80.89;96443.11;127447;1096;41020;-84
2021/08/04 21:17:39;;;;;;;5.15;3.90;;;;;;;17.87;81.01;96445.85;127406;1097;27445;-82
2021/08/04 21:20:14;;;;;;;4.25;3.08;;;;;;;17.84;81.09;96441.16;127412;1097;26299;-83
2021/08/04 21:22:46;;;;;;;5.80;3.48;;;;;;;17.79;81.32;96442.15;127401;1096;28497;-82
2021/08/04 21:25:19;;;;;;;5.53;3.80;;;;;;;17.71;81.37;96436.84;127420;1095;28561;-83
2021/08/04 21:27:50;;;;;;;5.23;3.80;;;;;;;17.65;81.27;96443.50;127427;1096;24018;-83
2021/08/04 21:30:23;;;;;;;6.20;3.03;;;;;;;17.68;81.52;96442.84;127466;1097;26462;-83
2021/08/04 21:32:55;;;;;;;4.73;3.50;;;;;;;17.74;81.59;96442.36;127433;1097;23563;-83
2021/08/04 21:35:27;;;;;;;5.78;3.20;;;;;;;17.79;81.77;96434.10;127438;1096;27661;-85
2021/08/04 21:37:58;;;;;;;6.33;3.88;;;;;;;17.84;81.76;96438.47;127375;1097;28967;-84
2021/08/04 21:40:29;;;;;;;4.00;3.45;;;;;;;17.81;81.65;96436.45;127435;1096;22858;-84
2021/08/04 21:43:01;;;;;;;4.50;3.68;;;;;;;17.83;81.72;96428.86;127438;1096;26305;-83
2021/08/04 21:45:32;;;;;;;4.75;3.43;;;;;;;17.86;81.96;96427.41;127470;1097;28658;-83
2021/08/04 21:48:04;;;;;;;5.80;3.60;;;;;;;17.72;81.65;96428.47;127444;1097;72038;-83
2021/08/04 21:50:35;;;;;;;7.20;3.70;;;;;;;17.75;81.83;96427.05;127493;1096;23382;-84
2021/08/04 21:53:07;;;;;;;3.90;3.20;;;;;;;17.74;81.73;96426.27;127415;1096;24015;-84
2021/08/04 21:55:38;;;;;;;5.95;3.35;;;;;;;17.69;81.67;96422.98;127441;1096;24799;-82
2021/08/04 21:58:10;;;;;;;4.33;3.28;;;;;;;17.70;81.98;96417.30;127459;1095;24863;-83
2021/08/04 22:00:42;;;;;;;4.13;3.03;;;;;;;17.76;82.30;96424.04;127396;1096;28927;-83
2021/08/04 22:03:13;;;;;;;4.73;3.55;;;;;;;17.78;82.31;96421.81;127453;1097;25303;-83
2021/08/04 22:05:44;;;;;;;4.48;3.60;;;;;;;17.78;82.44;96411.08;127509;1096;22846;-83
2021/08/04 22:08:18;;;;;;;5.50;3.40;;;;;;;17.79;82.63;96407.28;127392;1097;51851;-84
2021/08/04 22:10:51;;;;;;;6.35;3.85;;;;;;;17.84;82.51;96408.19;127400;1096;26845;-85
2021/08/04 22:13:24;;;;;;;6.18;3.40;;;;;;;17.83;82.47;96409.30;127441;1096;27182;-83
2021/08/04 22:15:56;;;;;;;5.88;3.35;;;;;;;17.84;82.46;96408.19;127480;1097;25874;-83
2021/08/04 22:18:27;;;;;;;5.93;3.58;;;;;;;17.83;82.50;96406.63;127466;1095;22813;-83
2021/08/04 22:20:59;;;;;;;4.18;3.25;;;;;;;17.73;82.53;96405.13;127449;1096;23402;-83
2021/08/04 22:23:30;;;;;;;6.40;4.20;;;;;;;17.67;82.79;96393.80;127410;1096;23514;-84
2021/08/04 22:26:01;;;;;;;5.08;3.55;;;;;;;17.66;82.99;96394.91;127471;1097;23767;-83
2021/08/04 22:28:33;;;;;;;5.18;3.45;;;;;;;17.57;83.21;96396.87;127431;1096;24747;-83
2021/08/04 22:31:04;;;;;;;6.68;3.80;;;;;;;17.50;83.38;96394.73;127515;1096;26305;-84
2021/08/04 22:33:36;;;;;;;4.65;3.75;;;;;;;17.45;83.62;96386.89;127546;1097;24429;-83
2021/08/04 22:36:07;;;;;;;6.08;3.83;;;;;;;17.41;83.54;96385.95;127442;1095;26289;-82
2021/08/04 22:38:39;;;;;;;6.28;3.93;;;;;;;17.43;83.54;96377.59;127414;1095;27019;-82
2021/08/04 22:41:10;;;;;;;5.30;3.53;;;;;;;17.46;83.75;96376.96;127443;1096;22977;-83
2021/08/04 22:43:41;;;;;;;5.48;3.63;;;;;;;17.45;83.78;96370.81;127400;1096;24276;-82
2021/08/04 22:46:13;;;;;;;4.63;3.33;;;;;;;17.49;84.04;96371.72;127451;1095;27191;-83
2021/08/04 22:48:45;;;;;;;5.18;3.60;;;;;;;17.53;84.19;96361.13;127409;1097;30342;-83
2021/08/04 22:51:16;;;;;;;4.90;3.65;;;;;;;17.52;84.08;96359.55;127462;1096;25357;-83
2021/08/04 22:53:47;;;;;;;8.10;4.33;;;;;;;17.56;84.35;96360.45;127482;1097;22821;-84
2021/08/04 22:56:19;;;;;;;10.83;4.25;;;;;;;17.48;84.30;96350.61;127441;1097;25454;-83
2021/08/04 22:58:50;;;;;;;5.35;3.80;;;;;;;17.38;84.17;96348.32;127471;1096;32491;-83
2021/08/04 23:01:21;;;;;;;6.13;3.53;;;;;;;17.30;84.22;96343.80;127425;1095;35646;-83
2021/08/04 23:03:53;;;;;;;6.38;3.80;;;;;;;17.34;84.73;96339.38;127437;1096;29986;-83
2021/08/04 23:06:24;;;;;;;5.28;3.98;;;;;;;17.39;84.91;96344.53;127436;1095;38570;-83
2021/08/04 23:08:55;;;;;;;6.58;3.88;;;;;;;17.34;84.40;96342.06;127444;1096;22807;-83
2021/08/04 23:11:26;;;;;;;5.28;4.10;;;;;;;17.31;84.58;96335.44;127424;1095;22942;-84
2021/08/04 23:13:58;;;;;;;7.05;3.60;;;;;;;17.29;84.56;96337.66;127425;1096;28983;-83
2021/08/04 23:16:29;;;;;;;5.55;4.10;;;;;;;17.30;84.92;96333.09;127477;1096;29633;-84
2021/08/04 23:19:00;;;;;;;6.93;3.73;;;;;;;17.35;85.05;96331.01;127409;1097;27277;-84
2021/08/04 23:21:32;;;;;;;6.95;4.20;;;;;;;17.39;85.12;96329.23;127418;1096;25052;-83
2021/08/04 23:24:03;;;;;;;5.78;3.95;;;;;;;17.46;85.03;96334.08;127470;1096;35869;-83
2021/08/04 23:26:34;;;;;;;5.85;3.95;;;;;;;17.49;85.01;96330.73;127530;1096;29414;-84
2021/08/04 23:29:05;;;;;;;5.18;3.75;;;;;;;17.52;84.94;96330.07;127485;1096;22842;-83
2021/08/04 23:31:37;;;;;;;6.13;4.23;;;;;;;17.50;84.72;96316.22;127430;1096;26678;-82
2021/08/04 23:34:08;;;;;;;5.88;4.03;;;;;;;17.45;84.51;96317.22;127452;1095;23748;-83
2021/08/04 23:36:40;;;;;;;6.20;3.70;;;;;;;17.41;84.77;96310.14;127455;1097;26488;-83
2021/08/04 23:39:11;;;;;;;5.55;3.50;;;;;;;17.39;84.83;96310.47;127406;1096;29563;-83
2021/08/04 23:41:43;;;;;;;4.70;3.80;;;;;;;17.43;85.22;96307.91;127399;1097;28151;-83
2021/08/04 23:44:14;;;;;;;5.77;3.73;;;;;;;17.46;85.34;96302.70;127435;1096;26993;-83
2021/08/04 23:46:46;;;;;;;7.25;4.28;;;;;;;17.44;85.16;96298.76;127409;1097;30379;-83
2021/08/04 23:49:17;;;;;;;5.43;3.60;;;;;;;17.40;85.29;96303.22;127401;1096;22842;-83
2021/08/04 23:51:49;;;;;;;6.15;4.43;;;;;;;17.32;85.30;96299.52;127437;1096;22759;-84
2021/08/04 23:54:20;;;;;;;7.70;4.83;;;;;;;17.33;85.67;96292.27;127433;1097;31372;-83
2021/08/04 23:56:51;;;;;;;8.10;5.55;;;;;;;17.38;85.65;96289.37;127422;1096;27833;-84
2021/08/04 23:59:23;;;;;;;10.28;6.60;;;;;;;17.36;85.28;96292.38;127428;1096;23945;-83
